Time;durP1;ratioP1;P1;durP2;ratioP2;P2;SDS_P1;SDS_P2;PMS_P1;PMS_P2;Temp;Humidity;BMP_temperature;BMP_pressure;BME280_temperature;BME280_humidity;BME280_pressure;Samples;Min_cycle;Max_cycle;Signal;HPM_P1;HPM_P2
2021/01/01 00:00:12;;;;;;;41.92;18.23;;;;;;;6.81;87.71;99641.80;1695368;84;21087;-67
2021/01/01 00:02:39;;;;;;;43.00;18.15;;;;;;;6.83;87.70;99643.81;1696635;84;21048;-69
2021/01/01 00:05:08;;;;;;;39.23;18.75;;;;;;;6.82;87.65;99640.77;1695915;84;21318;-69
2021/01/01 00:07:36;;;;;;;39.03;19.52;;;;;;;6.81;87.64;99631.75;1696252;84;21337;-68
2021/01/01 00:10:05;;;;;;;37.88;18.07;;;;;;;6.80;87.66;99634.14;1696421;84;21290;-69
2021/01/01 00:12:32;;;;;;;41.35;19.15;;;;;;;6.79;87.73;99634.34;1696040;84;21150;-68
2021/01/01 00:14:59;;;;;;;37.85;18.23;;;;;;;6.79;87.73;99628.37;1696257;84;21074;-67
2021/01/01 00:17:27;;;;;;;36.63;18.15;;;;;;;6.85;87.82;99632.20;1696026;84;21226;-68
2021/01/01 00:19:54;;;;;;;42.58;19.65;;;;;;;6.84;87.77;99628.64;1696059;84;21063;-67
2021/01/01 00:22:21;;;;;;;38.28;17.92;;;;;;;6.84;87.75;99630.52;1696461;84;21237;-68
2021/01/01 00:24:49;;;;;;;37.73;18.30;;;;;;;6.83;87.74;99629.68;1696185;84;21830;-68
2021/01/01 00:27:17;;;;;;;35.05;17.25;;;;;;;6.83;87.72;99626.11;1696038;84;21182;-68
2021/01/01 00:29:44;;;;;;;37.55;18.10;;;;;;;6.82;87.71;99622.55;1696107;84;21229;-67
2021/01/01 00:32:11;;;;;;;35.48;17.70;;;;;;;6.81;87.73;99623.58;1696185;84;21309;-68
2021/01/01 00:34:39;;;;;;;35.33;15.88;;;;;;;6.79;87.73;99610.68;1695618;84;21079;-68
2021/01/01 00:37:06;;;;;;;38.08;17.52;;;;;;;6.80;87.78;99616.97;1695776;84;21218;-67
2021/01/01 00:39:34;;;;;;;35.73;15.98;;;;;;;6.80;87.76;99612.88;1695539;84;21063;-69
2021/01/01 00:42:03;;;;;;;34.15;17.55;;;;;;;6.81;87.81;99607.77;1695708;84;21696;-69
2021/01/01 00:44:33;;;;;;;34.67;17.20;;;;;;;6.79;87.75;99607.95;1695650;84;21308;-68
2021/01/01 00:47:01;;;;;;;34.13;16.02;;;;;;;6.80;87.82;99607.44;1695618;84;21091;-69
2021/01/01 00:49:29;;;;;;;33.20;16.27;;;;;;;6.81;87.85;99605.89;1695631;84;21345;-68
2021/01/01 00:51:56;;;;;;;31.45;15.63;;;;;;;6.80;87.81;99590.59;1695587;84;21216;-68
2021/01/01 00:54:23;;;;;;;34.48;16.80;;;;;;;6.84;87.80;99595.13;1670233;84;21709;-69
2021/01/01 00:56:50;;;;;;;37.65;17.75;;;;;;;6.84;87.78;99589.68;1695606;84;21051;-69
2021/01/01 00:59:18;;;;;;;33.10;15.32;;;;;;;6.85;87.79;99596.81;1695557;84;21819;-67
2021/01/01 01:01:45;;;;;;;30.55;14.98;;;;;;;6.84;87.67;99589.16;1695796;84;21170;-68
2021/01/01 01:04:12;;;;;;;32.35;15.48;;;;;;;6.83;87.69;99585.27;1695557;84;21841;-66
2021/01/01 01:06:40;;;;;;;32.05;15.93;;;;;;;6.84;87.70;99592.41;1695610;84;21056;-68
2021/01/01 01:09:07;;;;;;;33.65;16.27;;;;;;;6.83;87.77;99573.02;1695713;84;21067;-69
2021/01/01 01:11:35;;;;;;;30.75;14.83;;;;;;;6.83;87.79;99582.55;1695564;84;21094;-66
2021/01/01 01:14:02;;;;;;;30.75;14.45;;;;;;;6.83;87.79;99578.47;1695849;84;21063;-68
2021/01/01 01:16:31;;;;;;;25.50;13.70;;;;;;;6.83;87.80;99579.83;1695708;84;21035;-66
2021/01/01 01:19:00;;;;;;;26.75;13.72;;;;;;;6.82;87.77;99571.33;1695689;84;21615;-68
2021/01/01 01:21:27;;;;;;;27.65;14.15;;;;;;;6.82;87.80;99569.97;1695522;84;21892;-68
2021/01/01 01:23:55;;;;;;;27.42;13.40;;;;;;;6.78;87.80;99568.67;1695768;84;21691;-68
2021/01/01 01:26:23;;;;;;;27.10;13.80;;;;;;;6.76;87.87;99564.78;1695812;84;21052;-67
2021/01/01 01:28:50;;;;;;;28.87;14.95;;;;;;;6.75;87.91;99560.89;1695683;84;21044;-69
2021/01/01 01:31:18;;;;;;;30.27;13.95;;;;;;;6.72;87.94;99558.04;1695673;84;21063;-68
2021/01/01 01:33:46;;;;;;;28.10;14.73;;;;;;;6.75;88.05;99546.77;1695166;84;21282;-67
2021/01/01 01:36:14;;;;;;;32.08;14.90;;;;;;;6.76;88.18;99549.81;1667780;86;21741;-69
2021/01/01 01:38:42;;;;;;;32.33;14.75;;;;;;;6.77;88.20;99545.20;1678765;85;21070;-66
2021/01/01 01:41:09;;;;;;;30.57;15.30;;;;;;;6.76;88.24;99543.01;1678751;85;21154;-68
2021/01/01 01:43:36;;;;;;;34.65;14.58;;;;;;;6.78;88.30;99542.81;1678643;85;21043;-68
2021/01/01 01:46:04;;;;;;;36.48;16.35;;;;;;;6.78;88.33;99544.17;1678793;85;21368;-68
2021/01/01 01:48:36;;;;;;;33.28;15.70;;;;;;;6.77;88.37;99539.25;1694465;84;21059;-68
2021/01/01 01:51:07;;;;;;;37.38;16.42;;;;;;;6.77;88.41;99539.77;1666157;85;21082;-66
2021/01/01 01:53:41;;;;;;;32.13;14.38;;;;;;;6.75;88.40;99548.12;1678759;85;21422;-70
2021/01/01 01:56:09;;;;;;;34.05;14.73;;;;;;;6.74;88.39;99539.64;1700020;84;21939;-65
2021/01/01 01:58:36;;;;;;;33.18;14.20;;;;;;;6.75;88.40;99542.68;1697181;84;21695;-66
2021/01/01 02:01:04;;;;;;;30.85;14.53;;;;;;;6.76;88.37;99542.16;1696969;84;21087;-68
2021/01/01 02:03:32;;;;;;;36.40;16.37;;;;;;;6.75;88.36;99539.12;1697026;84;21768;-68
2021/01/01 02:06:01;;;;;;;36.98;16.70;;;;;;;6.73;88.31;99528.42;1697032;84;21071;-69
2021/01/01 02:08:28;;;;;;;35.73;15.48;;;;;;;6.71;88.36;99526.93;1696963;84;21741;-68
2021/01/01 02:10:57;;;;;;;33.23;15.50;;;;;;;6.72;88.40;99524.02;1696812;84;21811;-67
2021/01/01 02:13:25;;;;;;;33.60;15.32;;;;;;;6.72;88.34;99518.57;1697167;84;21282;-68
2021/01/01 02:15:52;;;;;;;31.65;15.18;;;;;;;6.72;88.30;99515.00;1697179;84;21099;-67
2021/01/01 02:18:39;;;;;;;35.03;16.07;;;;;;;6.67;88.28;99512.34;1697090;84;21377;-67
2021/01/01 02:21:07;;;;;;;36.83;16.60;;;;;;;6.69;88.34;99512.16;1697311;84;21066;-69
2021/01/01 02:23:36;;;;;;;33.90;14.87;;;;;;;6.66;88.39;99512.02;1697080;84;21071;-66
2021/01/01 02:26:04;;;;;;;31.17;14.63;;;;;;;6.65;88.35;99507.62;1697140;84;21849;-69
2021/01/01 02:28:32;;;;;;;37.80;15.35;;;;;;;6.64;88.29;99510.53;1697049;84;21783;-69
2021/01/01 02:30:59;;;;;;;34.92;16.30;;;;;;;6.61;88.25;99511.77;1697050;84;21374;-69
2021/01/01 02:33:27;;;;;;;38.35;15.93;;;;;;;6.58;88.28;99509.44;1693321;84;21103;-66
2021/01/01 02:35:54;;;;;;;38.20;16.57;;;;;;;6.58;88.32;99507.23;1681530;85;21698;-68
2021/01/01 02:38:22;;;;;;;40.08;16.40;;;;;;;6.56;88.39;99497.90;1681575;85;21802;-69
2021/01/01 02:40:50;;;;;;;42.88;17.60;;;;;;;6.56;88.45;99500.63;1681593;85;21829;-69
2021/01/01 02:43:17;;;;;;;39.75;16.37;;;;;;;6.55;88.43;99498.94;1682035;85;21237;-68
2021/01/01 02:45:44;;;;;;;36.58;15.85;;;;;;;6.56;88.43;99492.97;1681531;84;21819;-69
2021/01/01 02:48:15;;;;;;;43.20;17.52;;;;;;;6.53;88.45;99492.84;1681446;85;21428;-67
2021/01/01 02:50:43;;;;;;;41.00;18.02;;;;;;;6.52;88.49;99487.08;1681455;83;21886;-68
2021/01/01 02:53:11;;;;;;;39.03;16.85;;;;;;;6.52;88.57;99484.35;1681545;85;21317;-67
2021/01/01 02:55:38;;;;;;;42.98;17.80;;;;;;;6.52;88.61;99484.35;1681544;85;21075;-68
2021/01/01 02:58:06;;;;;;;43.02;17.35;;;;;;;6.54;88.61;99478.20;1681771;85;21309;-66
2021/01/01 03:00:38;;;;;;;39.23;17.45;;;;;;;6.56;88.58;99476.13;1681471;85;21328;-67
2021/01/01 03:03:05;;;;;;;38.48;17.80;;;;;;;6.56;88.60;99466.60;1681651;85;21262;-68
2021/01/01 03:05:34;;;;;;;45.98;18.80;;;;;;;6.55;88.65;99471.72;1681519;84;21141;-67
2021/01/01 03:08:01;;;;;;;41.77;17.07;;;;;;;6.56;88.64;99467.12;1681527;85;21863;-68
2021/01/01 03:10:28;;;;;;;45.83;19.77;;;;;;;6.56;88.65;99458.44;1681568;85;21342;-68
2021/01/01 03:12:56;;;;;;;45.78;18.75;;;;;;;6.57;88.64;99449.23;1681702;84;21178;-69
2021/01/01 03:15:23;;;;;;;38.78;18.73;;;;;;;6.57;88.66;99445.16;1681628;84;21071;-69
2021/01/01 03:17:51;;;;;;;43.63;18.75;;;;;;;6.58;88.75;99445.48;1681373;85;21085;-67
2021/01/01 03:20:18;;;;;;;35.83;15.85;;;;;;;6.59;88.79;99444.44;1681425;85;21193;-68
2021/01/01 03:22:47;;;;;;;40.58;17.77;;;;;;;6.61;88.78;99437.44;1681625;84;21067;-66
2021/01/01 03:25:14;;;;;;;41.73;18.12;;;;;;;6.59;88.76;99439.00;1681514;85;21079;-67
2021/01/01 03:27:41;;;;;;;44.90;21.62;;;;;;;6.62;88.80;99439.97;1681558;85;21106;-68
2021/01/01 03:30:10;;;;;;;45.80;19.02;;;;;;;6.64;88.83;99433.80;1681658;84;21968;-67
2021/01/01 03:32:38;;;;;;;43.35;19.05;;;;;;;6.66;88.83;99433.61;1681866;85;21094;-67
2021/01/01 03:35:07;;;;;;;42.08;18.50;;;;;;;6.67;88.84;99436.66;1693235;84;21332;-67
2021/01/01 03:37:35;;;;;;;40.78;18.57;;;;;;;6.70;88.85;99432.70;1697150;84;21919;-68
2021/01/01 03:40:05;;;;;;;42.43;17.60;;;;;;;6.71;88.81;99420.77;1697029;84;21816;-69
2021/01/01 03:42:34;;;;;;;41.77;19.37;;;;;;;6.73;88.79;99415.97;1697745;84;21310;-68
2021/01/01 03:45:01;;;;;;;39.95;19.17;;;;;;;6.73;88.77;99405.92;1697313;84;21067;-70
2021/01/01 03:47:29;;;;;;;40.20;18.42;;;;;;;6.76;88.79;99411.50;1697171;84;21814;-68
2021/01/01 03:49:56;;;;;;;47.45;19.12;;;;;;;6.75;88.79;99421.55;1697375;84;21782;-71
2021/01/01 03:52:24;;;;;;;39.33;17.80;;;;;;;6.77;88.74;99406.37;1697100;84;21122;-67
2021/01/01 03:54:51;;;;;;;39.05;18.48;;;;;;;6.78;88.69;99413.50;1697077;84;21805;-67
2021/01/01 03:57:18;;;;;;;34.88;16.32;;;;;;;6.78;88.61;99410.78;1697188;84;21071;-68
2021/01/01 03:59:46;;;;;;;38.33;18.87;;;;;;;6.79;88.59;99415.18;1697355;84;21297;-68
2021/01/01 04:02:13;;;;;;;38.45;17.75;;;;;;;6.81;88.54;99415.83;1697469;84;21731;-70
2021/01/01 04:04:41;;;;;;;38.50;16.75;;;;;;;6.80;88.51;99420.43;1697387;84;21166;-67
2021/01/01 04:07:08;;;;;;;37.00;17.85;;;;;;;6.81;88.39;99426.72;1697441;84;21333;-67
2021/01/01 04:09:36;;;;;;;39.55;17.70;;;;;;;6.81;88.37;99414.47;1697377;84;21308;-69
2021/01/01 04:12:04;;;;;;;34.15;17.75;;;;;;;6.82;88.31;99403.90;1697319;84;21154;-67
2021/01/01 04:14:31;;;;;;;35.88;17.45;;;;;;;6.85;88.26;99403.50;1688098;84;21053;-68
2021/01/01 04:16:58;;;;;;;39.15;17.92;;;;;;;6.84;88.21;99390.41;1648795;85;21263;-68
2021/01/01 04:19:26;;;;;;;34.05;16.55;;;;;;;6.83;88.15;99391.45;1644523;87;21466;-69
2021/01/01 04:21:53;;;;;;;30.20;15.75;;;;;;;6.83;88.09;99379.20;1644655;87;21494;-70
2021/01/01 04:24:20;;;;;;;32.17;17.07;;;;;;;6.83;87.98;99373.75;1644856;87;21427;-66
2021/01/01 04:26:48;;;;;;;31.97;17.23;;;;;;;6.81;87.92;99377.19;1644711;87;21795;-70
2021/01/01 04:29:16;;;;;;;31.27;15.98;;;;;;;6.83;87.87;99387.88;1644596;87;21355;-68
2021/01/01 04:31:44;;;;;;;33.58;17.87;;;;;;;6.83;87.81;99386.52;1644632;87;21221;-67
2021/01/01 04:34:11;;;;;;;32.38;15.78;;;;;;;6.79;87.71;99380.64;1644665;87;21362;-67
2021/01/01 04:36:38;;;;;;;28.90;14.90;;;;;;;6.79;87.65;99377.07;1644668;87;21096;-67
2021/01/01 04:39:06;;;;;;;29.98;14.40;;;;;;;6.79;87.54;99378.43;1644726;87;21317;-68
2021/01/01 04:41:35;;;;;;;30.37;15.30;;;;;;;6.77;87.47;99376.42;1644791;87;21116;-68
2021/01/01 04:44:03;;;;;;;26.12;14.73;;;;;;;6.75;87.45;99389.39;1644629;87;21439;-68
2021/01/01 04:46:30;;;;;;;27.37;15.68;;;;;;;6.73;87.44;99392.84;1644620;87;21348;-68
2021/01/01 04:48:58;;;;;;;27.13;14.65;;;;;;;6.72;87.43;99391.16;1644640;87;21208;-68
2021/01/01 04:51:25;;;;;;;26.70;13.95;;;;;;;6.69;87.35;99373.34;1644705;87;21109;-67
2021/01/01 04:53:55;;;;;;;24.82;12.90;;;;;;;6.67;87.27;99346.31;1644694;87;21154;-67
2021/01/01 04:56:23;;;;;;;23.80;13.45;;;;;;;6.64;87.23;99369.84;1644624;87;21356;-67
2021/01/01 04:58:50;;;;;;;24.40;13.35;;;;;;;6.62;87.24;99365.64;1644573;87;21357;-68
2021/01/01 05:01:18;;;;;;;20.50;12.10;;;;;;;6.60;87.26;99355.47;1644631;87;21212;-67
2021/01/01 05:03:45;;;;;;;21.10;11.85;;;;;;;6.59;87.27;99356.52;1644692;87;21207;-69
2021/01/01 05:06:12;;;;;;;23.67;12.40;;;;;;;6.59;87.28;99348.34;1644589;87;21790;-68
2021/01/01 05:08:40;;;;;;;18.35;11.10;;;;;;;6.61;87.23;99339.46;1644570;87;21462;-69
2021/01/01 05:11:09;;;;;;;17.92;11.00;;;;;;;6.57;87.02;99356.70;1644594;87;21449;-71
2021/01/01 05:13:36;;;;;;;21.07;11.73;;;;;;;6.53;86.93;99364.95;1644565;87;21191;-68
2021/01/01 05:16:04;;;;;;;19.95;11.35;;;;;;;6.49;86.94;99369.59;1644612;87;21834;-69
2021/01/01 05:18:31;;;;;;;22.98;12.30;;;;;;;6.46;86.89;99361.30;1623806;87;21111;-68
2021/01/01 05:20:59;;;;;;;22.62;12.50;;;;;;;6.42;86.83;99366.81;1644525;87;21344;-69
2021/01/01 05:23:28;;;;;;;21.17;11.70;;;;;;;6.40;86.83;99366.69;1644607;87;21144;-68
2021/01/01 05:26:13;;;;;;;20.72;12.03;;;;;;;6.39;86.87;99359.04;1644624;87;21219;-67
2021/01/01 05:28:55;;;;;;;20.02;10.95;;;;;;;6.39;86.88;99365.84;1644799;87;21482;-68
2021/01/01 05:31:26;;;;;;;21.87;12.23;;;;;;;6.38;86.89;99368.23;1684625;84;21874;-68
2021/01/01 05:34:00;;;;;;;20.75;11.78;;;;;;;6.34;86.94;99362.87;1685302;85;21111;-67
2021/01/01 05:36:44;;;;;;;22.85;11.90;;;;;;;6.33;87.00;99363.91;1685505;84;21225;-68
2021/01/01 05:39:20;;;;;;;22.90;12.05;;;;;;;6.34;87.01;99365.59;1685386;84;21845;-67
2021/01/01 05:41:50;;;;;;;22.70;11.75;;;;;;;6.34;87.06;99360.15;1685240;85;21096;-67
2021/01/01 05:44:26;;;;;;;21.65;12.10;;;;;;;6.33;87.15;99353.02;1685351;85;21272;-71
2021/01/01 05:46:57;;;;;;;17.23;10.27;;;;;;;6.34;87.18;99361.51;1685559;85;21142;-67
2021/01/01 05:49:38;;;;;;;22.48;11.93;;;;;;;6.34;87.18;99361.51;1685278;84;21550;-70
2021/01/01 05:52:16;;;;;;;21.02;12.03;;;;;;;6.35;87.25;99357.75;1685404;85;21378;-67
2021/01/01 05:54:47;;;;;;;;;;;;;;;6.34;87.24;99352.83;1687764;83;21322;-67
2021/01/01 05:57:16;;;;;;;21.97;11.43;;;;;;;6.32;87.28;99352.18;1685396;85;20225;-67
2021/01/01 05:59:47;;;;;;;20.95;11.68;;;;;;;6.31;87.37;99346.42;1685181;85;21886;-68
2021/01/01 06:02:15;;;;;;;21.80;12.00;;;;;;;6.31;87.42;99342.86;1685294;84;21672;-66
2021/01/01 06:04:42;;;;;;;22.10;11.20;;;;;;;6.30;87.49;99347.45;1685232;85;21446;-68
2021/01/01 06:07:11;;;;;;;25.08;12.18;;;;;;;6.31;87.57;99333.34;1685260;85;21258;-67
2021/01/01 06:09:39;;;;;;;22.15;10.80;;;;;;;6.32;87.59;99342.66;1685270;85;21826;-66
2021/01/01 06:12:10;;;;;;;22.22;11.80;;;;;;;6.34;87.67;99341.95;1685257;84;21397;-69
2021/01/01 06:14:45;;;;;;;19.12;10.50;;;;;;;6.35;87.73;99338.19;1685290;85;21361;-67
2021/01/01 06:17:18;;;;;;;19.50;8.88;;;;;;;6.36;87.78;99333.59;1685029;85;21338;-67
2021/01/01 06:19:52;;;;;;;20.32;10.05;;;;;;;6.35;87.87;99323.74;1685241;84;21072;-66
2021/01/01 06:22:27;;;;;;;18.02;9.58;;;;;;;6.36;87.91;99328.15;1685372;85;21441;-68
2021/01/01 06:25:02;;;;;;;19.73;9.35;;;;;;;6.38;87.93;99338.83;1685215;85;21840;-67
2021/01/01 06:27:31;;;;;;;19.02;9.85;;;;;;;6.37;87.95;99335.27;1685183;85;21334;-69
2021/01/01 06:30:11;;;;;;;19.65;9.10;;;;;;;6.38;87.96;99332.88;1685075;83;21116;-69
2021/01/01 06:32:38;;;;;;;20.80;9.73;;;;;;;6.38;88.00;99326.07;1685172;85;21103;-69
2021/01/01 06:35:15;;;;;;;22.10;10.25;;;;;;;6.40;87.99;99323.99;1688141;85;21978;-70
2021/01/01 06:37:49;;;;;;;23.42;10.38;;;;;;;6.41;87.98;99333.84;1685456;85;21210;-68
2021/01/01 06:40:35;;;;;;;19.95;9.55;;;;;;;6.44;87.97;99332.61;1684751;85;21218;-66
2021/01/01 06:43:07;;;;;;;19.10;9.85;;;;;;;6.44;87.93;99330.72;1685146;85;21465;-69
2021/01/01 06:45:45;;;;;;;21.48;9.43;;;;;;;6.45;87.86;99331.56;1685208;85;21367;-65
2021/01/01 06:48:24;;;;;;;22.85;10.68;;;;;;;6.44;87.76;99332.09;1685071;85;21784;-69
2021/01/01 06:50:52;;;;;;;21.12;10.53;;;;;;;6.43;87.72;99327.69;1685274;85;21807;-69
2021/01/01 06:53:28;;;;;;;18.48;10.10;;;;;;;6.45;87.69;99327.48;1685432;85;21933;-69
2021/01/01 06:56:10;;;;;;;17.40;10.08;;;;;;;6.46;87.69;99334.09;1684893;83;21478;-68
2021/01/01 06:58:38;;;;;;;19.02;9.60;;;;;;;6.46;87.67;99339.53;1685110;84;21135;-68
2021/01/01 07:01:16;;;;;;;21.15;9.65;;;;;;;6.46;87.64;99335.97;1685205;85;21075;-69
2021/01/01 07:03:44;;;;;;;20.57;10.40;;;;;;;6.47;87.62;99340.37;1685156;84;21480;-69
2021/01/01 07:06:20;;;;;;;22.82;10.95;;;;;;;6.47;87.57;99346.66;1685120;85;21337;-69
2021/01/01 07:08:47;;;;;;;21.00;9.93;;;;;;;6.46;87.57;99344.97;1684632;85;21091;-68
2021/01/01 07:11:33;;;;;;;20.27;10.18;;;;;;;6.46;87.59;99343.61;1685225;84;21126;-68
2021/01/01 07:14:11;;;;;;;22.62;11.50;;;;;;;6.45;87.63;99346.01;1685417;85;21131;-70
2021/01/01 07:16:41;;;;;;;21.48;10.15;;;;;;;6.47;87.69;99343.94;1685024;85;21343;-68
2021/01/01 07:19:09;;;;;;;29.00;12.13;;;;;;;6.48;87.67;99340.69;1685430;85;21044;-68
2021/01/01 07:21:38;;;;;;;22.10;11.57;;;;;;;6.47;87.69;99339.85;1685315;85;21474;-68
2021/01/01 07:24:06;;;;;;;21.23;10.78;;;;;;;6.49;87.70;99344.58;1688245;84;21155;-70
2021/01/01 07:26:34;;;;;;;27.42;10.63;;;;;;;6.49;87.74;99346.45;1685417;85;21674;-69
2021/01/01 07:29:03;;;;;;;23.95;10.93;;;;;;;6.51;87.82;99346.61;1685243;85;21929;-70
2021/01/01 07:31:30;;;;;;;22.13;10.13;;;;;;;6.52;87.82;99348.81;1685348;84;21298;-69
2021/01/01 07:34:07;;;;;;;24.15;11.03;;;;;;;6.53;87.78;99345.05;1685395;85;21104;-67
2021/01/01 07:36:34;;;;;;;29.00;12.15;;;;;;;6.54;87.85;99348.94;1666821;85;21385;-68
2021/01/01 07:39:04;;;;;;;22.02;11.10;;;;;;;6.56;87.89;99353.66;1685305;85;21806;-71
2021/01/01 07:41:32;;;;;;;24.92;11.43;;;;;;;6.58;87.89;99354.31;1685426;85;21091;-66
2021/01/01 07:44:00;;;;;;;24.80;11.10;;;;;;;6.59;87.90;99354.63;1685356;85;21127;-67
2021/01/01 07:46:29;;;;;;;27.05;12.18;;;;;;;6.60;87.79;99361.76;1685602;85;21388;-67
2021/01/01 07:48:58;;;;;;;25.85;12.43;;;;;;;6.60;87.80;99357.67;1685312;85;21270;-69
2021/01/01 07:51:25;;;;;;;25.32;10.78;;;;;;;6.62;87.80;99361.04;1685170;84;21258;-70
2021/01/01 07:53:58;;;;;;;23.77;11.63;;;;;;;6.63;87.82;99355.08;1682612;85;21253;-70
2021/01/01 07:56:26;;;;;;;23.00;11.15;;;;;;;6.62;87.81;99363.76;1685378;85;21111;-69
2021/01/01 07:58:54;;;;;;;20.70;10.08;;;;;;;6.61;87.80;99368.87;1685350;85;21150;-69
2021/01/01 08:01:22;;;;;;;21.27;9.83;;;;;;;6.63;87.87;99372.77;1685303;85;21860;-70
2021/01/01 08:03:50;;;;;;;17.90;10.25;;;;;;;6.65;87.89;99382.94;1685350;84;21106;-67
2021/01/01 08:06:18;;;;;;;20.32;10.75;;;;;;;6.65;87.89;99388.38;1684916;85;21882;-68
2021/01/01 08:08:45;;;;;;;85.65;40.52;;;;;;;6.66;87.99;99377.30;1685214;85;21372;-68
2021/01/01 08:11:12;;;;;;;25.40;11.85;;;;;;;6.66;88.07;99370.48;1685170;85;21402;-69
2021/01/01 08:13:40;;;;;;;30.45;15.25;;;;;;;6.70;88.20;99371.45;1685301;85;21343;-71
2021/01/01 08:16:15;;;;;;;18.70;10.20;;;;;;;6.76;88.29;99383.75;1685333;85;21067;-69
2021/01/01 08:18:43;;;;;;;17.20;9.03;;;;;;;6.82;88.42;99387.05;1685001;85;21226;-67
2021/01/01 08:21:10;;;;;;;17.73;8.85;;;;;;;6.91;88.57;99388.58;1685283;84;21804;-70
2021/01/01 08:23:57;;;;;;;24.87;10.82;;;;;;;6.97;88.65;99381.48;1685393;85;22234;-72
2021/01/01 08:26:26;;;;;;;30.30;15.55;;;;;;;7.03;88.71;99382.57;1684104;83;21389;-68
2021/01/01 08:28:53;;;;;;;23.00;11.83;;;;;;;7.10;88.83;99387.54;1685189;85;21136;-69
2021/01/01 08:31:21;;;;;;;17.80;8.95;;;;;;;7.17;88.90;99383.84;1685360;85;21853;-68
2021/01/01 08:33:53;;;;;;;16.97;9.18;;;;;;;7.22;88.97;99386.81;1685299;85;21087;-69
2021/01/01 08:36:33;;;;;;;18.10;9.30;;;;;;;7.29;89.03;99389.05;1685092;83;21518;-69
2021/01/01 08:39:11;;;;;;;17.30;8.85;;;;;;;7.36;89.10;99396.41;1684883;85;21096;-68
2021/01/01 08:41:46;;;;;;;15.70;8.88;;;;;;;7.41;89.26;99400.22;1684776;85;21391;-69
2021/01/01 08:44:16;;;;;;;17.10;8.35;;;;;;;7.50;89.36;99404.97;1684792;85;21083;-69
2021/01/01 08:46:43;;;;;;;17.23;8.20;;;;;;;7.57;89.36;99413.50;1684615;85;21163;-69
2021/01/01 08:49:21;;;;;;;19.82;8.05;;;;;;;7.66;89.40;99411.97;1684720;85;21095;-70
2021/01/01 08:51:49;;;;;;;16.62;8.63;;;;;;;7.74;89.43;99413.16;1684826;85;21441;-70
2021/01/01 08:54:24;;;;;;;14.58;7.70;;;;;;;7.83;89.43;99416.05;1681855;83;21080;-69
2021/01/01 08:56:58;;;;;;;14.45;7.65;;;;;;;7.89;89.43;99419.33;1685294;85;21178;-68
2021/01/01 08:59:28;;;;;;;16.35;7.22;;;;;;;7.95;89.40;99426.17;1684748;85;21239;-68
2021/01/01 09:01:55;;;;;;;16.45;7.72;;;;;;;8.03;89.33;99432.48;1684879;85;21103;-69
2021/01/01 09:04:24;;;;;;;14.18;6.80;;;;;;;8.08;89.30;99432.70;1684699;85;21071;-69
2021/01/01 09:07:04;;;;;;;11.20;5.75;;;;;;;8.14;89.22;99434.61;1684941;85;21110;-70
2021/01/01 09:09:33;;;;;;;13.08;6.70;;;;;;;8.20;89.21;99433.79;1684750;85;21365;-69
2021/01/01 09:12:21;;;;;;;11.63;6.67;;;;;;;8.26;89.20;99437.05;1684594;85;21162;-71
2021/01/01 09:14:53;;;;;;;10.78;5.80;;;;;;;8.33;89.15;99439.31;1685052;85;21301;-70
2021/01/01 09:17:25;;;;;;;13.25;6.25;;;;;;;8.41;89.07;99443.20;1684623;85;21294;-69
2021/01/01 09:20:08;;;;;;;13.03;5.85;;;;;;;8.48;89.05;99448.19;1684683;85;21147;-70
2021/01/01 09:22:36;;;;;;;10.85;6.28;;;;;;;8.56;88.99;99445.26;1684608;83;21100;-69
2021/01/01 09:25:24;;;;;;;11.85;6.62;;;;;;;8.62;88.91;99450.41;1709973;83;21333;-71
2021/01/01 09:27:52;;;;;;;11.60;5.62;;;;;;;8.68;88.80;99448.73;1713796;83;21127;-71
2021/01/01 09:30:22;;;;;;;7.80;4.85;;;;;;;8.72;88.68;99452.20;1712395;83;21091;-71
2021/01/01 09:32:53;;;;;;;9.93;5.58;;;;;;;8.76;88.50;99449.37;1685690;83;21127;-70
2021/01/01 09:35:21;;;;;;;8.43;4.67;;;;;;;8.79;88.34;99461.77;1713206;83;21973;-71
2021/01/01 09:37:55;;;;;;;8.13;4.75;;;;;;;8.80;88.20;99457.46;1713883;83;21357;-71
2021/01/01 09:40:25;;;;;;;7.90;5.20;;;;;;;8.83;88.12;99457.04;1713743;83;21856;-71
2021/01/01 09:42:55;;;;;;;7.45;3.92;;;;;;;8.87;88.01;99452.00;1713679;83;21170;-72
2021/01/01 09:45:22;;;;;;;10.63;4.95;;;;;;;8.90;87.84;99451.05;1714035;83;21363;-67
2021/01/01 09:47:50;;;;;;;7.37;4.25;;;;;;;8.93;87.66;99448.42;1713831;83;21399;-74
2021/01/01 09:50:18;;;;;;;7.92;4.65;;;;;;;8.95;87.51;99453.16;1715810;83;21115;-68
2021/01/01 09:52:45;;;;;;;8.48;3.92;;;;;;;8.97;87.33;99442.86;1713670;83;21319;-72
2021/01/01 09:55:12;;;;;;;6.05;3.77;;;;;;;9.00;87.17;99447.90;1713761;83;21816;-69
2021/01/01 09:57:40;;;;;;;6.67;3.40;;;;;;;9.02;87.07;99449.05;1713925;83;21107;-70
2021/01/01 10:00:14;;;;;;;5.97;3.50;;;;;;;9.05;86.93;99448.11;1713877;83;21818;-69
2021/01/01 10:02:41;;;;;;;5.62;3.12;;;;;;;9.08;86.79;99444.95;1713685;83;21123;-72
2021/01/01 10:05:10;;;;;;;5.78;3.10;;;;;;;9.10;86.64;99452.94;1713664;83;21156;-72
2021/01/01 10:07:38;;;;;;;6.15;3.02;;;;;;;9.11;86.47;99456.02;1713748;83;21839;-68
2021/01/01 10:10:07;;;;;;;5.00;2.90;;;;;;;9.11;86.32;99462.84;1713806;83;21110;-71
2021/01/01 10:12:34;;;;;;;4.95;3.17;;;;;;;9.12;86.22;99457.17;1713902;83;21458;-73
2021/01/01 10:15:03;;;;;;;4.95;3.20;;;;;;;9.14;86.05;99458.33;1713879;83;21091;-68
2021/01/01 10:17:31;;;;;;;9.33;4.78;;;;;;;9.14;85.92;99467.36;1713957;83;21047;-71
2021/01/01 10:19:58;;;;;;;11.15;5.83;;;;;;;9.15;85.81;99449.91;1713619;83;21123;-69
2021/01/01 10:22:26;;;;;;;12.90;6.20;;;;;;;9.18;85.79;99455.48;1714061;83;21344;-69
2021/01/01 10:24:53;;;;;;;9.83;5.75;;;;;;;9.23;85.62;99460.31;1714023;83;21087;-68
2021/01/01 10:27:20;;;;;;;14.85;6.67;;;;;;;9.26;85.45;99462.63;1713893;83;21431;-71
2021/01/01 10:29:47;;;;;;;16.02;8.58;;;;;;;9.27;85.28;99461.56;1713840;83;21339;-70
2021/01/01 10:32:15;;;;;;;9.30;5.15;;;;;;;9.29;85.17;99468.50;1713856;83;21354;-70
2021/01/01 10:34:43;;;;;;;7.05;3.67;;;;;;;9.29;85.11;99464.41;1713529;83;21091;-70
2021/01/01 10:37:12;;;;;;;11.70;5.53;;;;;;;9.30;84.91;99470.19;1706197;83;21117;-70
2021/01/01 10:39:40;;;;;;;9.03;5.22;;;;;;;9.30;84.72;99476.17;1700390;84;21292;-69
2021/01/01 10:42:07;;;;;;;4.67;2.77;;;;;;;9.30;84.67;99474.81;1700620;84;21101;-70
2021/01/01 10:44:35;;;;;;;7.05;2.98;;;;;;;9.31;84.49;99483.33;1700505;84;21332;-71
2021/01/01 10:47:03;;;;;;;3.42;2.62;;;;;;;9.31;84.34;99478.70;1700305;84;21361;-71
2021/01/01 10:49:30;;;;;;;5.12;2.60;;;;;;;9.30;84.23;99483.02;1700421;84;21117;-68
2021/01/01 10:51:58;;;;;;;3.85;2.52;;;;;;;9.28;84.14;99487.84;1700585;84;21383;-71
2021/01/01 10:54:26;;;;;;;3.25;2.30;;;;;;;9.28;84.11;99489.22;1700519;84;21332;-70
2021/01/01 10:56:53;;;;;;;5.58;2.55;;;;;;;9.28;84.07;99490.58;1700707;84;21256;-71
2021/01/01 10:59:22;;;;;;;3.85;2.55;;;;;;;9.27;84.03;99487.53;1700430;84;21081;-72
2021/01/01 11:02:02;;;;;;;4.65;2.45;;;;;;;9.26;84.04;99478.50;1700538;84;21125;-69
2021/01/01 11:04:29;;;;;;;2.72;2.17;;;;;;;9.28;84.09;99491.42;1700600;84;21872;-69
2021/01/01 11:06:57;;;;;;;4.17;2.50;;;;;;;9.27;84.07;99498.47;1700444;84;21347;-71
2021/01/01 11:09:26;;;;;;;4.97;2.70;;;;;;;9.28;84.08;99496.89;1700171;84;21100;-69
2021/01/01 11:11:55;;;;;;;6.10;3.85;;;;;;;9.29;84.08;99501.83;1700163;84;21436;-69
2021/01/01 11:14:38;;;;;;;6.25;3.47;;;;;;;9.29;84.12;99497.73;1700470;84;21837;-70
2021/01/01 12:20:51;;;;;;;8.55;6.15;;;;;;;9.14;83.77;99537.05;1680383;85;21756;-68
2021/01/01 12:23:17;;;;;;;9.13;6.15;;;;;;;9.15;83.80;99546.09;1678779;84;21094;-68
2021/01/01 12:25:39;;;;;;;10.68;6.70;;;;;;;9.15;83.75;99548.30;1679697;84;21107;-68
2021/01/01 12:28:06;;;;;;;9.90;6.30;;;;;;;9.17;83.72;99554.92;1680282;84;21381;-69
2021/01/01 12:30:34;;;;;;;11.12;7.22;;;;;;;9.18;83.73;99563.44;1680235;84;21266;-68
2021/01/01 12:33:02;;;;;;;10.25;7.05;;;;;;;9.18;83.65;99557.97;1680148;85;21933;-67
2021/01/01 12:35:30;;;;;;;10.88;6.55;;;;;;;9.15;83.61;99561.96;1680572;85;21095;-69
2021/01/01 12:38:00;;;;;;;16.42;9.75;;;;;;;9.14;83.63;99568.48;1689566;84;21349;-70
2021/01/01 12:40:28;;;;;;;15.58;9.88;;;;;;;9.12;83.61;99563.75;1697118;84;21091;-69
2021/01/01 12:42:55;;;;;;;11.55;7.00;;;;;;;9.10;83.66;99569.95;1696846;84;21082;-70